Time;durP1;ratioP1;P1;durP2;ratioP2;P2;SDS_P1;SDS_P2;PMS_P1;PMS_P2;Temp;Humidity;BMP_temperature;BMP_pressure;BME280_temperature;BME280_humidity;BME280_pressure;Samples;Min_cycle;Max_cycle;Signal;HPM_P1;HPM_P2
2023/07/03 00:00:19;;;;;;;14.32;13.13;;;;;;;19.94;69.60;94550.25;5115165;28;20203;-68
2023/07/03 00:02:52;;;;;;;14.68;13.43;;;;;;;19.92;69.41;94555.47;5116262;28;20195;-69
2023/07/03 00:05:23;;;;;;;15.45;14.13;;;;;;;19.90;70.03;94544.72;5114893;28;20209;-69
2023/07/03 00:07:51;;;;;;;15.30;13.80;;;;;;;19.89;69.51;94545.91;5116258;28;20217;-68
2023/07/03 00:10:21;;;;;;;15.23;13.82;;;;;;;19.88;69.81;94544.31;5114595;28;20520;-68
2023/07/03 00:12:49;;;;;;;14.38;13.07;;;;;;;19.86;69.93;94546.78;5116098;28;20195;-68
2023/07/03 00:15:17;;;;;;;15.68;14.18;;;;;;;19.86;69.87;94546.78;5115191;28;20207;-68
2023/07/03 00:17:48;;;;;;;16.02;14.63;;;;;;;19.85;69.74;94544.38;5114840;28;20196;-68
2023/07/03 00:20:16;;;;;;;15.05;13.65;;;;;;;19.85;70.03;94549.97;5115562;28;20196;-68
2023/07/03 00:22:46;;;;;;;14.77;13.35;;;;;;;19.84;69.56;94549.19;5115052;28;20203;-69
2023/07/03 00:25:15;;;;;;;15.65;14.25;;;;;;;19.86;69.77;94549.56;5115931;28;20199;-69
2023/07/03 00:27:43;;;;;;;15.10;13.85;;;;;;;19.86;69.97;94548.75;5114548;28;20223;-69
2023/07/03 00:30:12;;;;;;;15.68;14.27;;;;;;;19.84;70.38;94552.00;5115436;28;20180;-69
2023/07/03 00:32:38;;;;;;;15.20;13.90;;;;;;;19.84;70.26;94556.81;5115770;28;20184;-69
2023/07/03 00:35:08;;;;;;;14.75;13.38;;;;;;;19.84;70.31;94554.78;5114962;28;20191;-69
2023/07/03 00:37:36;;;;;;;14.63;13.38;;;;;;;19.84;70.30;94552.00;5114849;28;20200;-70
2023/07/03 00:40:10;;;;;;;15.07;13.68;;;;;;;19.85;69.99;94561.19;5115632;28;20204;-69
2023/07/03 00:42:37;;;;;;;15.88;14.55;;;;;;;19.82;69.95;94559.22;5115630;28;20203;-69
2023/07/03 00:45:09;;;;;;;14.25;13.05;;;;;;;19.81;70.27;94560.44;5114983;28;20192;-69
2023/07/03 00:47:38;;;;;;;14.77;13.48;;;;;;;19.80;70.26;94562.47;5114340;28;20640;-69
2023/07/03 00:50:07;;;;;;;15.50;14.00;;;;;;;19.79;70.13;94562.88;5115501;28;20234;-68
2023/07/03 00:52:35;;;;;;;15.77;14.35;;;;;;;19.76;70.44;94561.72;5113650;28;20211;-69
2023/07/03 00:55:10;;;;;;;16.77;15.20;;;;;;;19.76;70.64;94564.53;5115288;28;20191;-69
2023/07/03 00:57:38;;;;;;;15.32;13.88;;;;;;;19.75;70.78;94564.94;5115237;28;20210;-69
2023/07/03 01:00:09;;;;;;;15.73;14.32;;;;;;;19.75;70.92;94567.72;5115413;28;20196;-69
2023/07/03 01:02:42;;;;;;;16.23;14.73;;;;;;;19.74;70.94;94563.38;5114601;28;20520;-69
2023/07/03 01:05:16;;;;;;;15.68;14.27;;;;;;;19.72;70.80;94566.59;5115556;28;20199;-69
2023/07/03 01:07:45;;;;;;;15.30;14.05;;;;;;;19.69;71.00;94562.63;5114531;28;20230;-69
2023/07/03 01:10:16;;;;;;;16.95;15.45;;;;;;;19.69;70.84;94564.66;5114488;28;20196;-68
2023/07/03 01:12:47;;;;;;;16.38;14.98;;;;;;;19.69;71.21;94559.03;5114406;28;20195;-69
2023/07/03 01:15:20;;;;;;;15.32;14.02;;;;;;;19.67;71.01;94564.25;5115357;28;20191;-69
2023/07/03 01:17:51;;;;;;;16.33;14.82;;;;;;;19.67;71.31;94569.84;5114503;28;20219;-69
2023/07/03 03:25:09;;;;;;;16.27;14.68;;;;;;;19.57;74.52;94616.34;6120805;22;1669604;-66
2023/07/03 03:27:37;;;;;;;16.25;14.82;;;;;;;19.59;74.32;94616.69;6155969;23;20608;-66
2023/07/03 03:30:12;;;;;;;16.58;15.10;;;;;;;19.59;74.48;94613.91;6159305;23;20159;-66
2023/07/03 03:32:40;;;;;;;16.48;15.07;;;;;;;19.60;74.24;94617.50;6158762;23;20269;-71
2023/07/03 03:35:10;;;;;;;16.23;14.80;;;;;;;19.60;74.21;94614.69;6169010;23;20167;-66
2023/07/03 03:37:38;;;;;;;16.15;14.55;;;;;;;19.58;74.43;94615.13;6159378;23;20159;-66
2023/07/03 03:40:10;;;;;;;16.92;15.43;;;;;;;19.59;74.69;94627.09;6158808;23;20214;-66
2023/07/03 03:42:41;;;;;;;16.30;14.90;;;;;;;19.56;74.61;94620.34;6158915;23;20179;-66
2023/07/03 03:45:12;;;;;;;16.80;15.32;;;;;;;19.57;74.95;94626.72;6159380;23;20234;-66
2023/07/03 03:47:40;;;;;;;16.33;14.98;;;;;;;19.56;75.08;94628.72;6169072;23;20222;-66
2023/07/03 03:50:14;;;;;;;16.58;15.07;;;;;;;19.56;74.79;94623.13;6158087;23;20171;-66
2023/07/03 03:52:42;;;;;;;16.80;15.30;;;;;;;19.55;75.31;94629.94;6157522;23;20630;-66
2023/07/03 03:58:52;;;;;;;16.00;14.60;;;;;;;19.54;75.79;94642.38;6168618;23;20158;-66
2023/07/03 04:01:25;;;;;;;16.95;15.45;;;;;;;19.55;75.76;94643.16;6159164;23;20164;-66
2023/07/03 04:03:54;;;;;;;16.23;14.73;;;;;;;19.54;76.16;94647.94;6157999;23;20214;-66
2023/07/03 04:06:20;;;;;;;17.08;15.48;;;;;;;19.53;75.90;94645.56;6158459;23;20183;-66
2023/07/03 04:08:51;;;;;;;16.25;14.73;;;;;;;19.54;76.16;94647.94;6158243;23;20229;-66
2023/07/03 04:11:21;;;;;;;16.65;15.25;;;;;;;19.57;76.38;94643.50;6158264;23;20171;-66
2023/07/03 04:13:49;;;;;;;17.02;15.43;;;;;;;19.59;76.26;94649.47;6157263;23;20191;-66
2023/07/03 04:16:21;;;;;;;16.90;15.35;;;;;;;19.59;76.58;94646.69;6155932;23;20182;-66
2023/07/03 04:18:50;;;;;;;16.90;15.30;;;;;;;19.60;76.53;94653.84;6157748;23;20556;-66
2023/07/03 04:21:18;;;;;;;15.98;14.57;;;;;;;19.61;76.42;94652.66;6158862;23;20174;-66
2023/07/03 04:23:46;;;;;;;15.88;14.45;;;;;;;19.63;76.61;94655.84;6157450;23;20186;-67
2023/07/03 04:26:14;;;;;;;15.45;14.15;;;;;;;19.64;76.67;94658.22;6158458;23;20182;-66
2023/07/03 04:28:43;;;;;;;16.58;15.05;;;;;;;19.66;76.36;94657.81;6158838;23;20167;-68
2023/07/03 04:31:12;;;;;;;15.98;14.57;;;;;;;19.67;76.47;94653.78;6157986;23;20171;-66
2023/07/03 04:33:45;;;;;;;15.80;14.20;;;;;;;19.68;76.22;94660.94;6157597;23;20198;-66
2023/07/03 04:36:20;;;;;;;15.30;13.90;;;;;;;19.69;76.36;94663.34;6155959;23;20179;-67
2023/07/03 04:38:47;;;;;;;16.30;14.70;;;;;;;19.70;76.81;94662.13;6158609;23;20499;-67
2023/07/03 04:41:17;;;;;;;16.35;14.88;;;;;;;19.71;76.50;94666.50;6168767;23;20171;-67
2023/07/03 04:43:48;;;;;;;16.67;15.00;;;;;;;19.70;76.54;94669.72;6158658;23;20171;-67
2023/07/03 04:46:18;;;;;;;15.98;14.57;;;;;;;19.68;76.20;94670.16;6153572;23;20183;-67
2023/07/03 04:48:50;;;;;;;16.23;14.82;;;;;;;19.65;76.16;94668.22;6157693;23;20171;-67
2023/07/03 04:51:21;;;;;;;16.27;14.82;;;;;;;19.63;76.28;94673.41;6157819;23;20190;-67
2023/07/03 04:53:50;;;;;;;15.45;13.88;;;;;;;19.63;76.86;94676.22;6157157;23;20249;-67
2023/07/03 04:56:18;;;;;;;15.32;13.93;;;;;;;19.63;76.72;94673.41;6155390;23;20484;-67
2023/07/03 04:58:47;;;;;;;16.38;14.77;;;;;;;19.65;76.80;94675.81;6157241;23;20171;-67
2023/07/03 05:01:15;;;;;;;15.70;14.10;;;;;;;19.65;76.83;94685.00;6157709;23;20189;-67
2023/07/03 05:03:45;;;;;;;15.90;14.40;;;;;;;19.68;77.25;94691.72;6157178;23;20175;-67
2023/07/03 05:06:15;;;;;;;14.50;13.10;;;;;;;19.69;76.83;94687.75;6156898;23;20174;-67
2023/07/03 05:08:43;;;;;;;15.25;13.95;;;;;;;19.71;76.82;94682.50;6158145;23;20604;-67
2023/07/03 05:11:12;;;;;;;15.30;13.90;;;;;;;19.75;76.60;94691.63;6157685;23;20171;-67
2023/07/03 05:13:39;;;;;;;16.33;14.82;;;;;;;19.78;76.77;94687.19;6167957;23;20190;-67
2023/07/03 05:16:10;;;;;;;16.00;14.57;;;;;;;19.79;76.86;94686.81;6157332;23;20182;-67
2023/07/03 05:18:38;;;;;;;14.50;13.20;;;;;;;19.82;76.64;94690.75;6158383;23;20238;-67
2023/07/03 05:21:06;;;;;;;15.48;14.07;;;;;;;19.84;76.71;94689.13;6157134;23;20175;-67
2023/07/03 05:23:36;;;;;;;15.20;13.70;;;;;;;19.86;76.29;94691.47;6156744;23;20237;-67
2023/07/03 05:26:06;;;;;;;15.15;13.85;;;;;;;19.88;76.78;94689.06;6128797;23;20160;-67
2023/07/03 05:28:36;;;;;;;14.85;13.63;;;;;;;19.89;76.71;94690.63;6103482;23;20184;-67
2023/07/03 05:31:04;;;;;;;16.10;14.57;;;;;;;19.89;76.93;94693.44;6103535;23;20168;-67
2023/07/03 05:33:33;;;;;;;16.10;14.70;;;;;;;19.90;76.85;94697.84;6138678;23;20243;-68
2023/07/03 05:36:03;;;;;;;15.15;13.75;;;;;;;19.92;76.60;94698.19;6138604;23;20180;-68
2023/07/03 05:38:35;;;;;;;17.02;15.52;;;;;;;19.93;76.61;94697.78;6128797;23;20224;-69
2023/07/03 05:41:03;;;;;;;15.80;14.23;;;;;;;19.95;76.56;94698.13;6103568;23;20180;-69
2023/07/03 05:43:31;;;;;;;15.25;13.85;;;;;;;19.98;76.85;94701.31;6103262;23;20176;-69
2023/07/03 05:45:58;;;;;;;15.82;14.43;;;;;;;20.01;77.53;94698.47;6078927;23;20186;-69
2023/07/03 05:48:26;;;;;;;16.05;14.55;;;;;;;20.04;77.44;94705.22;6102980;23;20176;-69
2023/07/03 05:50:54;;;;;;;16.63;15.02;;;;;;;20.05;76.96;94704.81;6128280;23;20184;-69
2023/07/03 05:53:22;;;;;;;17.23;15.73;;;;;;;20.09;77.40;94702.75;6103080;23;20191;-69
2023/07/03 05:55:57;;;;;;;15.95;14.45;;;;;;;20.13;76.95;94703.47;6127635;23;20235;-69
2023/07/03 05:58:28;;;;;;;16.10;14.60;;;;;;;20.14;76.65;94702.25;6103455;23;20184;-69
2023/07/03 06:00:58;;;;;;;16.35;14.75;;;;;;;20.16;76.39;94704.63;6103494;23;20179;-69
2023/07/03 06:03:26;;;;;;;15.77;14.27;;;;;;;20.17;76.23;94706.22;6103329;23;20203;-69
2023/07/03 06:05:58;;;;;;;15.95;14.45;;;;;;;20.20;76.39;94703.34;6102892;23;20192;-69
2023/07/03 06:08:27;;;;;;;15.73;14.18;;;;;;;20.24;76.50;94699.72;6127394;23;20180;-69
2023/07/03 06:10:55;;;;;;;15.10;13.70;;;;;;;20.28;76.59;94708.84;6103318;23;20452;-69
2023/07/03 06:13:22;;;;;;;15.35;14.15;;;;;;;20.31;76.37;94705.22;6128878;23;20180;-69
2023/07/03 06:15:56;;;;;;;14.98;13.55;;;;;;;20.31;75.61;94705.22;6103162;23;20171;-69
2023/07/03 06:18:25;;;;;;;15.32;13.93;;;;;;;20.26;75.47;94711.28;6127899;23;20195;-69
2023/07/03 06:20:53;;;;;;;14.95;13.75;;;;;;;20.25;75.83;94709.69;6103609;23;20196;-69
2023/07/03 06:23:21;;;;;;;14.65;13.30;;;;;;;20.24;75.54;94708.91;6128320;23;20500;-69
2023/07/03 06:25:48;;;;;;;15.27;13.82;;;;;;;20.27;75.46;94710.88;6156074;23;20209;-69
2023/07/03 06:28:17;;;;;;;14.85;13.55;;;;;;;20.29;75.43;94711.22;6156721;23;20550;-69
2023/07/03 06:30:48;;;;;;;14.48;13.18;;;;;;;20.32;75.57;94715.19;6158318;23;20183;-69
2023/07/03 06:33:21;;;;;;;14.80;13.40;;;;;;;20.35;75.62;94709.53;6158364;23;20187;-69
2023/07/03 06:35:51;;;;;;;15.75;14.15;;;;;;;20.37;75.70;94711.88;6159103;23;20585;-69
2023/07/03 06:38:22;;;;;;;14.73;13.32;;;;;;;20.40;75.83;94711.03;6158639;23;20182;-69
2023/07/03 06:40:57;;;;;;;15.10;13.77;;;;;;;20.43;75.67;94707.41;6158919;23;20591;-69
2023/07/03 06:43:25;;;;;;;14.52;13.10;;;;;;;20.46;75.76;94706.53;6159840;23;20209;-69
2023/07/03 06:45:55;;;;;;;15.23;13.77;;;;;;;20.48;75.68;94715.31;6158784;23;20171;-71
2023/07/03 06:48:25;;;;;;;15.43;14.02;;;;;;;20.49;75.77;94711.31;6159854;23;20163;-69
2023/07/03 06:51:02;;;;;;;15.20;13.88;;;;;;;20.51;75.58;94706.09;6159940;23;20194;-69
2023/07/03 06:53:29;;;;;;;15.07;13.77;;;;;;;20.54;76.04;94707.25;6158266;23;20206;-69
2023/07/03 06:55:57;;;;;;;14.60;13.18;;;;;;;20.55;75.87;94701.22;6158561;23;20175;-70
2023/07/03 06:58:26;;;;;;;13.80;12.60;;;;;;;20.61;75.76;94707.91;6169222;23;20175;-67
2023/07/03 07:00:55;;;;;;;15.10;13.70;;;;;;;20.66;76.10;94701.03;6169489;23;20230;-68
2023/07/03 07:03:23;;;;;;;14.77;13.35;;;;;;;20.75;76.50;94701.28;6158582;23;20242;-69
2023/07/03 07:05:54;;;;;;;14.30;12.98;;;;;;;20.82;76.25;94703.94;6159662;23;20243;-68
2023/07/03 07:08:22;;;;;;;13.77;12.57;;;;;;;20.86;75.90;94704.66;6157997;23;20175;-68
2023/07/03 07:10:50;;;;;;;14.13;12.82;;;;;;;20.90;75.82;94694.19;6158714;23;20177;-68
2023/07/03 07:13:18;;;;;;;12.77;11.68;;;;;;;20.90;76.29;94699.78;6158316;23;20175;-68
2023/07/03 07:15:47;;;;;;;13.90;12.63;;;;;;;20.90;76.44;94702.59;6158570;23;20183;-68
2023/07/03 07:18:15;;;;;;;13.50;12.30;;;;;;;20.91;76.24;94700.56;6158004;23;20197;-68
2023/07/03 07:20:43;;;;;;;13.52;12.32;;;;;;;20.92;76.23;94688.94;6158576;23;20186;-68
2023/07/03 07:23:13;;;;;;;20.30;13.30;;;;;;;20.94;76.56;94696.91;6169056;23;20156;-68
2023/07/03 07:25:41;;;;;;;14.57;13.10;;;;;;;20.97;76.67;94703.69;6159038;23;20203;-68
2023/07/03 07:28:08;;;;;;;13.40;12.15;;;;;;;20.97;76.40;94703.69;6158098;23;20175;-68
2023/07/03 07:30:38;;;;;;;14.10;12.70;;;;;;;20.96;76.35;94699.31;6158547;23;20230;-68
2023/07/03 07:33:06;;;;;;;12.77;11.57;;;;;;;20.97;75.46;94698.88;6158408;23;20175;-67
2023/07/03 07:35:36;;;;;;;12.65;11.45;;;;;;;20.98;75.52;94702.47;6158526;23;20182;-67
2023/07/03 07:38:05;;;;;;;12.57;11.45;;;;;;;20.98;75.04;94705.25;6157833;23;20578;-67
2023/07/03 07:40:37;;;;;;;12.52;11.38;;;;;;;20.99;75.52;94709.63;6157753;23;20206;-67
2023/07/03 07:43:05;;;;;;;13.32;12.02;;;;;;;21.03;75.76;94708.38;6159293;23;20199;-68
2023/07/03 07:45:33;;;;;;;13.27;11.95;;;;;;;21.08;75.93;94707.88;6158182;23;20194;-67
2023/07/03 07:48:01;;;;;;;12.73;11.55;;;;;;;21.14;76.04;94710.97;6158965;23;20470;-67
2023/07/03 07:50:29;;;;;;;10.82;9.93;;;;;;;21.16;74.24;94723.31;6158948;23;20175;-67
2023/07/03 07:52:59;;;;;;;11.90;10.90;;;;;;;21.15;73.52;94720.97;6158674;23;20198;-67
2023/07/03 07:55:27;;;;;;;13.48;12.27;;;;;;;21.18;73.57;94722.13;6157885;23;20241;-67
2023/07/03 07:57:59;;;;;;;11.40;10.40;;;;;;;21.19;73.48;94730.09;6168756;23;20178;-67
2023/07/03 08:00:27;;;;;;;11.73;10.75;;;;;;;21.21;74.11;94724.84;6158279;23;20163;-67
2023/07/03 08:02:53;;;;;;;12.65;11.43;;;;;;;21.27;73.32;94730.75;6158294;23;20183;-68
2023/07/03 08:05:21;;;;;;;11.35;10.25;;;;;;;21.26;73.32;94729.16;6157931;23;20485;-67
2023/07/03 08:07:48;;;;;;;11.88;10.77;;;;;;;21.31;73.60;94737.06;6157754;23;20179;-67
2023/07/03 08:10:15;;;;;;;11.90;10.70;;;;;;;21.33;72.11;94734.63;6157674;23;20179;-67
2023/07/03 08:12:42;;;;;;;11.23;10.18;;;;;;;21.34;72.28;94731.41;6158815;23;20229;-67
2023/07/03 08:15:13;;;;;;;12.27;11.27;;;;;;;21.43;72.31;94732.88;6157988;23;20199;-67
2023/07/03 08:17:41;;;;;;;11.98;10.80;;;;;;;21.47;72.94;94728.00;6158844;23;20179;-67
2023/07/03 08:20:11;;;;;;;12.18;11.00;;;;;;;21.54;73.27;94730.66;6158717;23;20175;-69
2023/07/03 08:22:42;;;;;;;11.00;10.00;;;;;;;21.55;71.36;94721.78;6158062;23;20213;-69
2023/07/03 08:25:12;;;;;;;13.02;11.13;;;;;;;21.63;70.52;94739.25;6158632;23;20202;-68
2023/07/03 08:27:46;;;;;;;11.18;10.05;;;;;;;21.68;72.02;94730.34;6157653;23;20214;-69
2023/07/03 08:30:16;;;;;;;12.80;11.68;;;;;;;21.77;71.11;94729.75;6158737;23;20242;-68
2023/07/03 08:32:44;;;;;;;12.82;11.70;;;;;;;21.79;70.81;94735.75;6157665;23;20174;-68
2023/07/03 08:35:14;;;;;;;11.05;10.00;;;;;;;21.82;71.41;94734.84;6168388;23;20175;-68
2023/07/03 08:37:42;;;;;;;11.38;10.27;;;;;;;21.88;71.79;94728.28;6157715;23;20262;-68
2023/07/03 08:40:12;;;;;;;10.50;9.43;;;;;;;21.99;71.83;94733.69;6157328;23;20171;-68
2023/07/03 08:42:44;;;;;;;10.95;9.85;;;;;;;22.10;70.62;94736.25;6158295;23;20167;-68
2023/07/03 08:45:14;;;;;;;11.07;10.10;;;;;;;22.11;70.81;94749.88;6157230;23;20565;-68
2023/07/03 08:47:44;;;;;;;10.88;9.88;;;;;;;22.08;70.92;94744.34;6157687;23;20171;-68
2023/07/03 08:50:17;;;;;;;11.27;10.18;;;;;;;22.04;70.98;94736.00;6157056;23;20179;-68
2023/07/03 08:52:47;;;;;;;10.73;9.82;;;;;;;22.07;70.60;94740.69;6157837;23;20167;-68
2023/07/03 08:55:20;;;;;;;11.15;9.75;;;;;;;22.16;71.23;94730.94;6157191;23;20190;-68
2023/07/03 08:57:49;;;;;;;10.85;9.95;;;;;;;22.22;72.00;94740.41;6157060;23;20225;-68
2023/07/03 09:00:20;;;;;;;10.38;9.38;;;;;;;22.22;70.73;94734.78;6158391;23;20171;-68
2023/07/03 09:02:55;;;;;;;10.18;9.27;;;;;;;22.25;70.26;94745.94;6157250;23;20229;-68
2023/07/03 09:05:39;;;;;;;10.50;9.55;;;;;;;22.40;70.64;94731.56;6158129;23;20242;-68
2023/07/03 09:08:10;;;;;;;10.10;9.10;;;;;;;22.50;67.38;94734.13;6157010;23;20194;-68
2023/07/03 09:10:41;;;;;;;10.43;9.45;;;;;;;22.67;71.10;94728.53;6157016;23;20167;-69
2023/07/03 09:13:12;;;;;;;10.00;9.10;;;;;;;22.82;69.19;94735.34;6162154;23;20179;-69
2023/07/03 09:15:44;;;;;;;9.23;8.32;;;;;;;22.86;66.60;94735.25;6157052;23;20194;-69
2023/07/03 09:18:17;;;;;;;9.45;8.55;;;;;;;22.81;63.33;94742.22;6157269;23;20162;-69
2023/07/03 09:20:45;;;;;;;10.07;9.27;;;;;;;22.76;64.99;94732.28;6156127;23;20463;-69
2023/07/03 09:23:18;;;;;;;9.35;8.40;;;;;;;22.86;67.16;94738.06;6157995;23;20523;-68
2023/07/03 09:25:49;;;;;;;10.05;9.13;;;;;;;23.08;68.45;94729.91;6156737;23;20257;-69
2023/07/03 09:28:19;;;;;;;9.45;8.55;;;;;;;23.23;64.82;94737.50;6157155;23;20226;-67
2023/07/03 09:30:47;;;;;;;9.93;9.02;;;;;;;23.33;67.21;94734.84;6157211;23;20171;-67
2023/07/03 09:33:17;;;;;;;9.95;9.15;;;;;;;23.41;66.44;94734.22;6157543;23;20179;-67
2023/07/03 09:35:44;;;;;;;9.75;8.93;;;;;;;23.46;63.30;94730.06;6156868;23;20199;-67
2023/07/03 09:38:15;;;;;;;10.30;9.30;;;;;;;23.46;63.12;94733.69;6167741;23;20166;-67
2023/07/03 09:40:45;;;;;;;9.82;8.93;;;;;;;23.55;61.18;94742.25;6156998;23;20177;-67
2023/07/03 09:43:15;;;;;;;9.02;8.13;;;;;;;23.58;63.52;94740.56;6157358;23;20181;-67
2023/07/03 09:45:42;;;;;;;9.20;8.30;;;;;;;23.53;62.51;94739.09;6157306;23;20241;-67
2023/07/03 09:48:22;;;;;;;9.15;8.25;;;;;;;23.66;62.07;94725.06;6156551;23;20182;-67
2023/07/03 09:50:48;;;;;;;9.05;8.07;;;;;;;23.74;63.05;94723.63;6157762;23;20167;-67
2023/07/03 09:53:18;;;;;;;8.88;8.07;;;;;;;23.85;62.01;94737.41;6157316;23;20174;-67
2023/07/03 09:55:52;;;;;;;9.18;8.32;;;;;;;23.84;61.83;94740.69;6157774;23;20206;-67
2023/07/03 09:58:20;;;;;;;8.85;8.10;;;;;;;23.84;64.44;94737.84;6157071;23;20240;-67
2023/07/03 10:00:52;;;;;;;9.20;8.43;;;;;;;23.72;62.24;94742.22;6156978;23;20186;-67
2023/07/03 10:03:26;;;;;;;9.82;8.82;;;;;;;23.52;61.32;94736.72;6157163;23;20225;-67
2023/07/03 10:05:55;;;;;;;8.82;8.13;;;;;;;23.37;62.32;94736.34;6158904;23;20163;-67
2023/07/03 10:08:27;;;;;;;9.40;8.50;;;;;;;23.25;63.29;94734.25;6159052;23;20167;-68
2023/07/03 10:10:58;;;;;;;8.55;7.75;;;;;;;23.29;64.59;94726.50;6160152;23;20225;-67
2023/07/03 10:13:33;;;;;;;9.30;8.43;;;;;;;23.48;64.61;94724.78;6160175;23;20439;-67
2023/07/03 10:16:01;;;;;;;8.45;7.75;;;;;;;23.67;63.49;94723.84;6158944;23;20194;-68
2023/07/03 10:18:38;;;;;;;8.77;7.95;;;;;;;23.83;63.59;94723.00;6158810;23;20186;-67
2023/07/03 10:21:11;;;;;;;8.20;7.50;;;;;;;23.94;60.10;94728.31;6159144;23;20229;-67
2023/07/03 10:23:43;;;;;;;9.02;8.18;;;;;;;24.06;61.66;94721.09;6158933;23;20190;-67
2023/07/03 10:26:16;;;;;;;9.07;8.27;;;;;;;24.17;62.68;94722.34;6158124;23;20206;-67
2023/07/03 10:28:46;;;;;;;8.63;7.82;;;;;;;24.38;63.19;94723.72;6158973;23;20537;-67
2023/07/03 10:31:18;;;;;;;8.88;8.02;;;;;;;24.50;63.21;94720.13;6158730;23;20170;-67
2023/07/03 10:33:52;;;;;;;8.30;7.55;;;;;;;24.60;59.36;94712.56;6158679;23;20175;-67
2023/07/03 10:36:24;;;;;;;8.27;7.57;;;;;;;24.70;60.28;94714.25;6158352;23;20623;-67
2023/07/03 10:38:55;;;;;;;8.55;7.75;;;;;;;24.79;59.23;94712.75;6158693;23;20572;-67
2023/07/03 10:41:27;;;;;;;8.10;7.30;;;;;;;24.88;58.62;94710.84;6158646;23;20185;-67
2023/07/03 10:43:57;;;;;;;7.72;7.03;;;;;;;24.95;58.09;94713.41;6158652;23;20175;-67
2023/07/03 10:46:29;;;;;;;8.55;7.25;;;;;;;25.05;56.49;94717.09;6158299;23;20572;-67
2023/07/03 10:49:03;;;;;;;8.18;7.30;;;;;;;25.10;56.69;94705.28;6159097;23;20230;-67
2023/07/03 10:51:40;;;;;;;7.65;6.85;;;;;;;25.16;56.53;94711.09;6159377;23;20447;-67
2023/07/03 10:54:32;;;;;;;7.78;7.07;;;;;;;25.23;56.55;94704.44;6158618;23;20179;-67
2023/07/03 10:57:36;;;;;;;8.95;7.53;;;;;;;25.32;58.35;94710.94;6103932;23;20258;-67
2023/07/03 11:00:41;;;;;;;8.60;7.80;;;;;;;25.44;57.98;94710.09;6103654;23;20179;-67
2023/07/03 11:03:46;;;;;;;8.15;7.43;;;;;;;25.50;58.06;94707.47;6127332;23;20184;-67
2023/07/03 11:06:54;;;;;;;7.50;6.85;;;;;;;25.44;58.14;94712.91;6103534;23;20235;-67
2023/07/03 11:09:59;;;;;;;7.43;6.72;;;;;;;25.22;56.51;94714.94;6103555;23;20179;-67
2023/07/03 11:13:04;;;;;;;7.43;6.82;;;;;;;24.94;56.66;94714.63;6128006;23;20190;-67
2023/07/03 11:16:10;;;;;;;7.88;6.78;;;;;;;24.74;58.46;94709.28;6127643;23;20194;-67
2023/07/03 11:19:14;;;;;;;7.30;6.60;;;;;;;24.59;59.08;94708.19;6103805;23;20179;-67
2023/07/03 11:22:19;;;;;;;7.38;6.68;;;;;;;24.47;59.64;94715.41;6130668;23;20183;-67
2023/07/03 11:25:25;;;;;;;7.53;6.70;;;;;;;24.40;59.26;94712.81;6169205;23;20205;-67
2023/07/03 11:28:29;;;;;;;7.18;6.57;;;;;;;24.38;58.64;94709.63;6158995;23;20159;-67
2023/07/03 11:31:38;;;;;;;7.00;6.40;;;;;;;24.44;57.26;94707.06;6159433;23;20163;-68
2023/07/03 11:34:42;;;;;;;7.65;6.97;;;;;;;24.62;58.34;94693.19;6158043;23;20253;-68
2023/07/03 11:37:48;;;;;;;6.80;6.28;;;;;;;24.97;58.33;94696.00;6158206;23;20186;-67
2023/07/03 11:40:53;;;;;;;6.53;6.03;;;;;;;25.25;55.49;94682.19;6159213;23;20210;-68
2023/07/03 11:43:59;;;;;;;6.57;5.97;;;;;;;25.44;53.75;94684.69;6157683;23;20565;-67
2023/07/03 11:47:04;;;;;;;6.60;5.88;;;;;;;25.59;55.48;94678.50;6158100;23;20178;-67
2023/07/03 11:50:10;;;;;;;6.18;5.68;;;;;;;25.55;52.73;94675.81;6158289;23;20186;-67
2023/07/03 11:53:15;;;;;;;8.65;6.55;;;;;;;25.47;56.16;94676.56;6168823;23;20169;-67
2023/07/03 11:55:44;;;;;;;6.97;6.20;;;;;;;25.56;56.66;94679.44;6158140;23;20190;-67
2023/07/03 11:58:12;;;;;;;6.40;5.80;;;;;;;25.54;56.05;94682.72;6157884;23;20175;-67
2023/07/03 12:00:40;;;;;;;6.57;6.07;;;;;;;25.46;56.96;94684.25;6158268;23;20171;-67
2023/07/03 12:03:08;;;;;;;7.03;6.13;;;;;;;25.37;56.75;94682.13;6156546;23;20191;-67
2023/07/03 12:05:54;;;;;;;6.22;5.72;;;;;;;25.34;56.33;94683.03;6157865;23;20175;-67
2023/07/03 12:08:45;;;;;;;6.55;5.95;;;;;;;25.25;57.28;94688.63;6159032;23;20538;-67
2023/07/03 12:11:16;;;;;;;6.45;5.93;;;;;;;25.20;58.08;94683.53;6158717;23;20174;-67
2023/07/03 12:13:54;;;;;;;6.95;6.25;;;;;;;25.37;59.64;94684.94;6158667;23;20159;-67
2023/07/03 12:16:30;;;;;;;6.53;5.93;;;;;;;25.56;58.05;94682.25;6157697;23;20198;-67
2023/07/03 12:19:04;;;;;;;6.60;6.00;;;;;;;25.79;55.45;94676.16;6158054;23;20163;-67
2023/07/03 12:21:56;;;;;;;6.20;5.40;;;;;;;25.94;55.69;94682.06;6157633;23;20335;-67
2023/07/03 12:24:27;;;;;;;6.00;5.40;;;;;;;26.05;55.92;94676.78;6148593;23;20206;-68
2023/07/03 12:27:00;;;;;;;6.88;6.07;;;;;;;26.22;55.08;94676.53;6157701;23;20171;-68
2023/07/03 12:29:29;;;;;;;5.93;5.38;;;;;;;26.28;53.64;94671.84;6157729;23;20167;-68
2023/07/03 12:32:05;;;;;;;6.05;5.55;;;;;;;26.29;54.99;94668.56;6158395;23;20489;-68
2023/07/03 12:34:35;;;;;;;5.63;5.13;;;;;;;26.39;51.35;94675.03;6157907;23;20186;-68
2023/07/03 12:37:07;;;;;;;5.57;5.00;;;;;;;26.46;52.94;94679.63;6157584;23;20167;-68
2023/07/03 12:39:34;;;;;;;5.45;5.05;;;;;;;26.47;52.15;94672.72;6158475;23;20247;-68
2023/07/03 12:42:12;;;;;;;5.53;4.95;;;;;;;26.48;50.59;94668.66;6157450;23;20171;-68
2023/07/03 12:44:40;;;;;;;5.28;4.88;;;;;;;26.53;52.75;94676.53;6158710;23;20163;-67
2023/07/03 12:47:13;;;;;;;6.10;5.18;;;;;;;26.63;53.34;94670.44;6157193;23;20186;-69
2023/07/03 12:49:55;;;;;;;5.45;5.03;;;;;;;26.73;50.21;94668.41;6157544;23;20172;-71
2023/07/03 12:52:24;;;;;;;5.40;5.00;;;;;;;26.73;51.49;94664.81;6158172;23;20167;-67
2023/07/03 12:54:53;;;;;;;5.82;5.28;;;;;;;26.85;51.28;94670.31;6158834;23;20159;-68
2023/07/03 12:57:23;;;;;;;5.68;5.18;;;;;;;26.93;49.99;94670.00;6157487;23;20183;-68
2023/07/03 12:59:51;;;;;;;5.38;4.88;;;;;;;26.97;50.54;94670.63;6158495;23;20183;-68
2023/07/03 13:02:25;;;;;;;5.30;4.75;;;;;;;26.99;49.52;94668.13;6158158;23;20163;-67
2023/07/03 13:04:58;;;;;;;5.60;5.03;;;;;;;27.00;50.84;94664.81;6157891;23;20171;-68
2023/07/03 13:07:27;;;;;;;5.20;4.70;;;;;;;27.06;50.47;94671.44;6157516;23;20167;-67
2023/07/03 13:09:56;;;;;;;6.10;5.57;;;;;;;27.12;50.77;94665.97;6158448;23;20163;-68
2023/07/03 13:12:26;;;;;;;5.72;5.15;;;;;;;27.11;51.21;94665.19;6161059;23;20586;-67
2023/07/03 13:15:10;;;;;;;5.20;4.80;;;;;;;27.20;49.66;94670.06;6158279;23;20178;-67
2023/07/03 13:17:38;;;;;;;6.00;4.65;;;;;;;27.20;47.34;94661.59;6157193;23;20243;-68
2023/07/03 13:20:22;;;;;;;4.93;4.43;;;;;;;27.21;48.89;94663.16;6157172;23;20175;-67
2023/07/03 13:22:52;;;;;;;5.57;5.05;;;;;;;27.26;50.80;94665.34;6159716;23;20175;-68
2023/07/03 13:25:33;;;;;;;5.18;4.78;;;;;;;27.16;48.57;94660.16;6167836;23;20210;-68
2023/07/03 13:28:07;;;;;;;5.32;4.85;;;;;;;27.13;51.38;94655.44;6158362;23;20170;-68
2023/07/03 13:30:38;;;;;;;5.70;5.20;;;;;;;27.14;49.23;94654.97;6157936;23;20435;-68
2023/07/03 13:33:07;;;;;;;5.60;5.10;;;;;;;27.23;50.11;94652.13;6157157;23;20171;-68
2023/07/03 13:35:41;;;;;;;5.70;5.20;;;;;;;27.27;49.74;94658.44;6157881;23;20179;-68
2023/07/03 13:38:30;;;;;;;5.35;4.85;;;;;;;27.29;49.15;94649.47;6158217;23;20159;-68
2023/07/03 13:41:00;;;;;;;5.30;4.80;;;;;;;27.26;48.89;94656.84;6157533;23;20167;-68
2023/07/03 13:43:33;;;;;;;5.55;5.00;;;;;;;27.27;50.07;94664.09;6167766;23;20171;-68
2023/07/03 13:46:01;;;;;;;5.13;4.63;;;;;;;27.16;48.56;94657.31;6157213;23;20167;-68
2023/07/03 13:48:30;;;;;;;6.05;5.00;;;;;;;26.99;48.56;94657.59;6158276;23;20167;-67
2023/07/03 13:50:57;;;;;;;5.90;5.40;;;;;;;26.85;49.21;94659.00;6157296;23;20175;-68
2023/07/03 13:53:27;;;;;;;5.97;5.43;;;;;;;26.83;49.58;94663.53;6158294;23;20164;-68
2023/07/03 13:55:55;;;;;;;5.20;4.70;;;;;;;26.86;50.79;94654.13;6167613;23;20237;-68
2023/07/03 13:58:25;;;;;;;5.15;4.75;;;;;;;26.97;50.21;94660.09;6158309;23;20159;-68